Time;durP1;ratioP1;P1;durP2;ratioP2;P2;SDS_P1;SDS_P2;PMS_P1;PMS_P2;Temp;Humidity;BMP_temperature;BMP_pressure;BME280_temperature;BME280_humidity;BME280_pressure;Samples;Min_cycle;Max_cycle;Signal;HPM_P1;HPM_P2
2021/04/07 00:01:52;;;;;;;2.78;0.93;;;2.10;82.60;;;;;;4790539;29;20044;-75
2021/04/07 00:04:19;;;;;;;5.57;1.52;;;2.10;82.80;;;;;;4793440;29;20047;-75
2021/04/07 00:06:45;;;;;;;2.97;1.30;;;2.00;83.10;;;;;;4771354;29;20078;-75
2021/04/07 00:09:12;;;;;;;3.78;1.15;;;2.00;83.30;;;;;;4803800;29;20548;-75
2021/04/07 00:11:39;;;;;;;4.93;0.98;;;2.10;83.00;;;;;;4780672;29;20059;-75
2021/04/07 00:14:08;;;;;;;2.50;1.02;;;2.00;83.20;;;;;;4794561;29;20110;-76
2021/04/07 00:16:35;;;;;;;3.22;1.40;;;2.00;83.00;;;;;;4786352;29;20122;-75
2021/04/07 00:19:01;;;;;;;4.05;1.13;;;2.10;82.80;;;;;;4785762;29;20054;-75
2021/04/07 00:21:28;;;;;;;3.25;1.40;;;2.10;82.20;;;;;;4774692;30;20050;-75
2021/04/07 00:23:54;;;;;;;4.00;1.55;;;2.20;81.80;;;;;;4801265;29;20144;-76
2021/04/07 00:26:21;;;;;;;3.42;1.42;;;2.20;81.60;;;;;;4789224;29;20043;-76
2021/04/07 00:28:47;;;;;;;5.80;1.33;;;2.20;81.80;;;;;;4799339;29;20077;-75
2021/04/07 00:31:14;;;;;;;2.88;1.00;;;2.10;81.80;;;;;;4787607;29;20043;-75
2021/04/07 00:33:40;;;;;;;3.00;1.17;;;2.10;82.40;;;;;;4781240;29;20447;-75
2021/04/07 00:36:07;;;;;;;3.58;1.25;;;2.00;82.60;;;;;;4787082;29;20126;-76
2021/04/07 00:38:34;;;;;;;6.15;1.48;;;2.10;82.60;;;;;;4788034;29;20051;-76
2021/04/07 00:41:02;;;;;;;2.92;1.27;;;2.00;83.30;;;;;;4779842;29;20148;-75
2021/04/07 00:43:28;;;;;;;5.35;1.75;;;1.90;83.50;;;;;;4799277;29;20047;-75
2021/04/07 00:45:55;;;;;;;6.53;1.80;;;1.80;84.60;;;;;;4801840;29;20491;-75
2021/04/07 00:48:22;;;;;;;3.90;1.30;;;1.70;84.00;;;;;;4788790;29;20074;-75
2021/04/07 00:50:48;;;;;;;5.22;1.02;;;1.70;83.70;;;;;;4784789;29;20052;-75
2021/04/07 00:53:16;;;;;;;2.20;1.10;;;1.80;83.90;;;;;;4790301;29;20047;-75
2021/04/07 00:55:45;;;;;;;3.80;1.45;;;1.80;83.20;;;;;;4788849;29;20065;-75
2021/04/07 00:58:12;;;;;;;4.93;1.73;;;1.90;82.60;;;;;;4785412;29;20527;-75
2021/04/07 01:00:40;;;;;;;4.72;1.92;;;1.90;82.40;;;;;;4789159;29;20043;-75
2021/04/07 01:03:07;;;;;;;7.05;2.25;;;2.00;82.20;;;;;;4783525;29;20950;-75
2021/04/07 01:05:34;;;;;;;5.10;1.98;;;2.00;81.50;;;;;;4773725;29;20488;-75
2021/04/07 01:08:01;;;;;;;6.55;1.67;;;1.90;82.00;;;;;;4785991;29;20055;-75
2021/04/07 01:10:27;;;;;;;3.97;1.80;;;1.90;81.10;;;;;;4800809;29;20518;-76
2021/04/07 01:12:55;;;;;;;3.38;1.73;;;1.80;81.30;;;;;;4783649;29;20047;-75
2021/04/07 01:15:22;;;;;;;6.30;1.45;;;1.90;82.00;;;;;;4801775;29;20531;-75
2021/04/07 01:17:49;;;;;;;4.75;1.45;;;1.80;82.40;;;;;;4789350;29;20054;-76
2021/04/07 01:20:19;;;;;;;3.53;1.08;;;1.80;82.00;;;;;;4802906;29;20063;-75
2021/04/07 01:22:56;;;;;;;4.35;1.42;;;1.70;82.40;;;;;;4797203;29;20397;-75
2021/04/07 01:25:23;;;;;;;6.32;1.77;;;1.70;82.70;;;;;;4789021;29;20047;-75
2021/04/07 01:27:50;;;;;;;4.95;1.92;;;1.60;82.60;;;;;;4789533;29;20043;-75
2021/04/07 01:30:17;;;;;;;7.72;1.88;;;1.70;82.60;;;;;;4800721;29;20053;-75
2021/04/07 01:32:44;;;;;;;5.95;1.73;;;1.60;82.20;;;;;;4793901;29;20406;-75
2021/04/07 01:35:14;;;;;;;5.63;1.13;;;1.60;82.60;;;;;;4792748;29;20055;-75
2021/04/07 01:37:41;;;;;;;4.55;1.38;;;1.70;82.20;;;;;;4791004;29;20099;-75
2021/04/07 01:40:10;;;;;;;4.70;1.40;;;1.60;82.50;;;;;;4777995;29;20051;-75
2021/04/07 01:42:39;;;;;;;3.40;1.20;;;1.40;83.50;;;;;;4792639;29;20047;-75
2021/04/07 01:45:07;;;;;;;3.30;1.17;;;1.40;84.10;;;;;;4774305;29;20415;-75
2021/04/07 01:47:34;;;;;;;6.65;2.20;;;1.50;83.40;;;;;;4788990;29;20055;-75
2021/04/07 01:50:03;;;;;;;7.05;2.10;;;1.60;82.80;;;;;;4808202;29;20057;-75
2021/04/07 01:52:30;;;;;;;6.15;1.98;;;1.50;83.00;;;;;;4786435;29;20046;-75
2021/04/07 01:54:57;;;;;;;7.38;2.05;;;1.40;83.70;;;;;;4803823;29;20046;-75
2021/04/07 01:57:24;;;;;;;7.57;2.50;;;1.20;84.00;;;;;;4799258;29;20495;-75
2021/04/07 01:59:51;;;;;;;5.03;1.88;;;1.30;84.60;;;;;;4778382;29;20143;-75
2021/04/07 02:02:18;;;;;;;6.20;2.10;;;1.20;85.40;;;;;;4787731;29;20079;-75
2021/04/07 02:04:47;;;;;;;4.38;1.77;;;1.30;85.20;;;;;;4802601;29;20039;-75
2021/04/07 02:07:15;;;;;;;6.10;2.10;;;1.20;85.60;;;;;;4797916;29;20070;-75
2021/04/07 02:09:42;;;;;;;7.55;2.45;;;1.20;85.40;;;;;;4800212;29;20393;-76
2021/04/07 02:12:09;;;;;;;7.50;2.17;;;1.20;84.50;;;;;;4792687;29;20051;-75
2021/04/07 02:14:35;;;;;;;5.40;1.65;;;1.20;84.90;;;;;;4781580;29;20054;-75
2021/04/07 02:17:04;;;;;;;4.78;2.40;;;1.20;85.00;;;;;;4792019;29;20650;-76
2021/04/07 02:19:33;;;;;;;6.05;1.98;;;1.20;85.50;;;;;;4792567;29;20046;-75
2021/04/07 02:22:07;;;;;;;2.90;1.50;;;1.30;85.20;;;;;;4787439;29;20596;-75
2021/04/07 02:24:39;;;;;;;5.07;1.75;;;1.30;85.00;;;;;;4788575;30;20051;-76
2021/04/07 02:27:13;;;;;;;4.63;1.70;;;1.30;84.60;;;;;;4811603;29;20053;-75
2021/04/07 02:29:41;;;;;;;4.72;1.80;;;1.10;84.80;;;;;;4793242;29;20057;-75
2021/04/07 02:32:09;;;;;;;3.85;1.48;;;1.20;85.30;;;;;;4790974;29;20111;-75
2021/04/07 02:34:36;;;;;;;4.60;1.52;;;1.10;85.10;;;;;;4791426;29;20562;-75
2021/04/07 02:37:03;;;;;;;5.65;2.10;;;1.20;85.00;;;;;;4785320;29;20042;-75
2021/04/07 02:39:30;;;;;;;3.75;1.63;;;1.10;85.10;;;;;;4791469;29;20380;-75
2021/04/07 02:41:56;;;;;;;4.95;2.00;;;1.10;84.90;;;;;;4796661;29;20053;-75
2021/04/07 02:44:23;;;;;;;6.03;2.00;;;1.10;84.90;;;;;;4791770;29;20049;-75
2021/04/07 02:46:50;;;;;;;5.25;1.60;;;1.00;85.10;;;;;;4789166;29;20154;-75
2021/04/07 02:49:16;;;;;;;6.53;1.65;;;0.70;85.90;;;;;;4786348;29;20180;-75
2021/04/07 02:51:43;;;;;;;4.65;1.67;;;0.90;85.60;;;;;;4791039;29;20047;-75
2021/04/07 02:54:10;;;;;;;5.28;1.60;;;0.70;85.80;;;;;;4806838;29;20051;-75
2021/04/07 02:56:37;;;;;;;3.95;1.52;;;0.70;86.10;;;;;;4780823;29;20389;-75
2021/04/07 02:59:04;;;;;;;5.40;1.80;;;0.80;86.30;;;;;;4777376;29;20051;-75
2021/04/07 03:01:30;;;;;;;4.38;1.70;;;0.80;85.90;;;;;;4791705;29;20047;-75
2021/04/07 03:03:57;;;;;;;4.68;1.35;;;0.90;86.10;;;;;;4784152;30;20070;-75
2021/04/07 03:06:24;;;;;;;6.97;2.40;;;0.90;85.60;;;;;;4788336;29;20055;-76
2021/04/07 03:08:50;;;;;;;4.38;1.67;;;0.90;84.90;;;;;;4773709;29;20807;-75
2021/04/07 03:11:17;;;;;;;7.72;2.63;;;0.80;85.20;;;;;;4798902;29;20119;-75
2021/04/07 03:13:44;;;;;;;4.68;1.95;;;1.00;85.30;;;;;;4788719;29;20071;-75
2021/04/07 03:16:11;;;;;;;4.32;1.83;;;0.70;86.00;;;;;;4789894;29;20141;-76
2021/04/07 03:18:38;;;;;;;5.55;1.88;;;0.60;86.20;;;;;;4799040;29;20055;-75
2021/04/07 03:21:05;;;;;;;9.93;2.55;;;0.50;86.50;;;;;;4806170;29;20568;-75
2021/04/07 03:23:32;;;;;;;4.20;2.05;;;0.60;85.70;;;;;;4789094;29;20080;-75
2021/04/07 03:25:59;;;;;;;6.50;2.50;;;0.70;85.40;;;;;;4809050;29;20052;-75
2021/04/07 03:28:26;;;;;;;8.20;2.35;;;0.50;87.10;;;;;;4800325;29;20461;-75
2021/04/07 03:30:52;;;;;;;8.63;3.50;;;0.50;87.30;;;;;;4791266;29;20038;-77
2021/04/07 03:33:21;;;;;;;6.72;2.30;;;0.40;87.50;;;;;;4788189;29;20522;-75
2021/04/07 03:35:49;;;;;;;6.60;2.42;;;0.40;87.10;;;;;;4805765;29;20050;-74
2021/04/07 03:38:17;;;;;;;5.53;2.40;;;0.40;87.90;;;;;;4796371;29;20050;-75
2021/04/07 03:40:44;;;;;;;6.50;2.20;;;0.50;87.30;;;;;;4789114;29;20054;-75
2021/04/07 03:43:13;;;;;;;6.72;2.50;;;0.70;87.40;;;;;;4790490;29;20046;-75
2021/04/07 03:45:47;;;;;;;9.77;2.33;;;0.40;87.80;;;;;;4800486;29;20059;-75
2021/04/07 03:48:16;;;;;;;6.07;2.10;;;0.40;88.90;;;;;;4775384;29;20584;-75
2021/04/07 03:50:44;;;;;;;4.90;1.70;;;0.60;88.40;;;;;;4788994;29;20055;-75
2021/04/07 03:53:12;;;;;;;4.05;1.67;;;0.40;89.20;;;;;;4791142;29;20076;-75
2021/04/07 03:55:41;;;;;;;4.75;1.90;;;0.60;89.40;;;;;;4790011;29;20043;-75
2021/04/07 03:58:08;;;;;;;5.25;1.50;;;0.60;89.30;;;;;;4787051;29;20062;-75
2021/04/07 04:00:34;;;;;;;9.57;2.03;;;0.70;89.70;;;;;;4802889;29;20047;-75
2021/04/07 04:03:01;;;;;;;4.63;1.70;;;0.50;90.00;;;;;;4804424;29;20047;-75
2021/04/07 04:05:28;;;;;;;4.88;1.58;;;0.50;90.00;;;;;;4798326;29;20055;-75
2021/04/07 04:07:54;;;;;;;7.75;2.50;;;0.50;90.40;;;;;;4787951;29;20051;-75
2021/04/07 04:10:21;;;;;;;6.57;1.95;;;0.60;90.50;;;;;;4805315;29;20050;-75
2021/04/07 04:12:48;;;;;;;5.50;1.77;;;0.70;90.20;;;;;;4788907;29;20530;-75
2021/04/07 04:15:19;;;;;;;5.47;1.83;;;0.70;90.00;;;;;;4787392;29;20054;-75
2021/04/07 04:17:46;;;;;;;5.20;1.90;;;0.80;89.60;;;;;;4787567;29;20404;-75
2021/04/07 04:20:14;;;;;;;6.20;2.25;;;0.90;89.30;;;;;;4785017;29;20419;-75
2021/04/07 04:22:42;;;;;;;5.00;1.92;;;0.90;88.80;;;;;;4789795;29;20054;-75
2021/04/07 04:25:17;;;;;;;5.25;2.08;;;0.80;88.90;;;;;;4788594;29;20051;-75
2021/04/07 04:27:44;;;;;;;5.85;1.98;;;0.80;88.90;;;;;;4778411;30;20043;-75
2021/04/07 04:30:13;;;;;;;4.32;1.55;;;0.80;89.50;;;;;;4796693;29;20099;-75
2021/04/07 04:32:40;;;;;;;4.15;1.83;;;0.80;90.00;;;;;;4811869;29;20043;-75
2021/04/07 04:35:09;;;;;;;6.50;1.77;;;0.80;90.20;;;;;;4786164;29;20061;-75
2021/04/07 04:37:37;;;;;;;8.15;2.47;;;0.70;90.20;;;;;;4800060;29;20066;-75
2021/04/07 04:40:04;;;;;;;8.80;2.38;;;0.80;90.40;;;;;;4786587;29;20066;-75
2021/04/07 04:42:31;;;;;;;9.63;2.83;;;0.90;90.30;;;;;;4790276;29;20047;-75
2021/04/07 04:44:57;;;;;;;7.60;3.05;;;1.00;90.20;;;;;;4805284;29;20125;-75
2021/04/07 04:47:24;;;;;;;7.65;3.83;;;1.00;90.20;;;;;;4778219;29;20039;-75
2021/04/07 04:49:51;;;;;;;6.20;2.30;;;1.00;90.20;;;;;;4793516;29;20043;-75
2021/04/07 04:52:19;;;;;;;8.10;1.95;;;1.00;90.20;;;;;;4770123;29;20088;-75
2021/04/07 04:54:46;;;;;;;10.73;3.45;;;0.90;90.30;;;;;;4786196;29;20481;-75
2021/04/07 04:57:13;;;;;;;11.60;3.53;;;0.90;90.40;;;;;;4807739;29;20050;-75
2021/04/07 04:59:40;;;;;;;11.57;4.47;;;1.00;90.30;;;;;;4804615;29;20057;-75
2021/04/07 05:02:06;;;;;;;13.98;4.25;;;1.00;90.40;;;;;;4782348;29;20058;-75
2021/04/07 05:04:33;;;;;;;8.40;3.47;;;1.30;90.30;;;;;;4785127;29;20059;-75
2021/04/07 05:07:00;;;;;;;10.85;3.70;;;1.20;90.20;;;;;;4784977;29;20717;-75
2021/04/07 05:09:27;;;;;;;12.65;3.97;;;1.30;90.10;;;;;;4786187;29;20059;-75
2021/04/07 05:11:54;;;;;;;8.40;2.97;;;1.40;90.00;;;;;;4787092;29;20129;-75
2021/04/07 05:14:20;;;;;;;6.60;2.75;;;1.40;89.90;;;;;;4786044;29;20078;-75
2021/04/07 05:16:47;;;;;;;6.78;2.38;;;1.40;90.00;;;;;;4774513;29;20486;-75
2021/04/07 05:19:14;;;;;;;8.68;3.03;;;1.40;90.20;;;;;;4787593;29;20088;-75
2021/04/07 05:21:40;;;;;;;4.03;1.85;;;1.40;90.50;;;;;;4783286;29;20042;-75
2021/04/07 05:24:08;;;;;;;8.32;2.72;;;1.40;90.60;;;;;;4784524;29;20051;-75
2021/04/07 05:26:35;;;;;;;8.48;2.42;;;1.50;90.90;;;;;;4788109;29;20053;-75
2021/04/07 05:29:03;;;;;;;9.38;3.25;;;1.50;91.10;;;;;;4788353;29;20043;-75
2021/04/07 05:31:30;;;;;;;9.32;2.83;;;1.50;91.40;;;;;;4788764;29;20043;-75
2021/04/07 05:33:57;;;;;;;8.07;3.45;;;1.50;91.60;;;;;;4779720;29;20100;-75
2021/04/07 05:36:23;;;;;;;10.32;3.30;;;1.70;91.60;;;;;;4797211;29;20119;-75
2021/04/07 05:38:50;;;;;;;7.40;2.80;;;1.70;91.60;;;;;;4788683;29;20062;-75
2021/04/07 05:41:17;;;;;;;8.35;3.03;;;1.70;91.80;;;;;;4774075;29;20513;-77
2021/04/07 05:43:49;;;;;;;8.05;3.10;;;1.80;91.90;;;;;;4789520;29;20130;-75
2021/04/07 05:46:16;;;;;;;7.93;2.92;;;1.90;91.90;;;;;;4806965;29;20050;-75
2021/04/07 05:48:42;;;;;;;5.57;2.33;;;2.00;91.90;;;;;;4800585;29;20042;-75
2021/04/07 05:51:10;;;;;;;5.75;2.30;;;2.10;91.40;;;;;;4800283;29;20092;-75
2021/04/07 05:53:36;;;;;;;4.25;1.73;;;2.20;90.90;;;;;;4787578;29;20047;-75
2021/04/07 05:56:22;;;;;;;8.98;2.65;;;2.30;90.20;;;;;;4794715;29;20127;-75
2021/04/07 05:58:48;;;;;;;7.78;2.38;;;2.50;89.60;;;;;;4778390;29;20073;-75
2021/04/07 06:01:15;;;;;;;5.03;2.30;;;2.50;87.40;;;;;;4793095;29;20047;-75
2021/04/07 06:03:41;;;;;;;5.80;2.35;;;2.60;87.90;;;;;;4784885;29;20050;-75
2021/04/07 06:06:08;;;;;;;9.02;2.35;;;2.70;87.30;;;;;;4803523;29;20047;-75
2021/04/07 06:08:35;;;;;;;12.45;2.17;;;2.80;87.10;;;;;;4777814;29;20077;-75
2021/04/07 06:11:02;;;;;;;7.30;1.98;;;2.90;86.90;;;;;;4800901;29;20112;-75
2021/04/07 06:13:28;;;;;;;5.53;2.05;;;3.10;86.40;;;;;;4797668;29;20442;-75
2021/04/07 06:15:55;;;;;;;5.20;1.70;;;3.20;84.50;;;;;;4799616;29;20054;-75
2021/04/07 06:18:22;;;;;;;5.95;2.17;;;3.30;83.30;;;;;;4802641;29;20057;-75
2021/04/07 06:20:50;;;;;;;4.90;1.90;;;3.40;82.00;;;;;;4794120;29;20054;-75
2021/04/07 06:23:19;;;;;;;5.13;2.08;;;3.40;81.30;;;;;;4803982;29;20063;-75
2021/04/07 06:25:46;;;;;;;5.38;2.00;;;3.50;81.30;;;;;;4784743;29;20206;-75
2021/04/07 06:28:14;;;;;;;5.35;2.20;;;3.50;81.40;;;;;;4791803;29;20481;-75
2021/04/07 06:33:19;;;;;;;6.57;1.98;;;3.80;79.70;;;;;;4794271;29;20061;-75
2021/04/07 06:35:50;;;;;;;4.93;1.88;;;3.90;79.50;;;;;;4791530;29;20065;-75
2021/04/07 06:38:18;;;;;;;5.80;2.08;;;4.00;78.00;;;;;;4789336;29;20066;-75
2021/04/07 06:40:46;;;;;;;5.90;2.00;;;4.00;77.40;;;;;;4804322;29;20054;-75
2021/04/07 06:43:15;;;;;;;5.47;1.95;;;4.00;77.20;;;;;;4791950;29;20056;-75
2021/04/07 06:45:41;;;;;;;8.18;3.05;;;4.10;77.20;;;;;;4784192;29;20058;-75
2021/04/07 06:48:09;;;;;;;11.10;2.92;;;4.10;76.90;;;;;;4778194;29;20055;-75
2021/04/07 06:50:37;;;;;;;7.13;2.50;;;4.20;76.40;;;;;;4795727;29;20043;-75
2021/04/07 06:53:05;;;;;;;6.20;2.35;;;4.30;76.60;;;;;;4774481;29;20146;-75
2021/04/07 06:55:32;;;;;;;7.03;2.42;;;4.40;77.30;;;;;;4805331;29;20062;-75
2021/04/07 06:58:01;;;;;;;5.00;2.22;;;4.60;77.40;;;;;;4769680;29;20392;-75
2021/04/07 07:00:28;;;;;;;5.40;2.28;;;4.70;76.60;;;;;;4800272;29;20078;-75
2021/04/07 07:03:03;;;;;;;7.30;2.53;;;4.80;73.20;;;;;;4806795;29;20051;-75
2021/04/07 07:05:31;;;;;;;5.65;1.92;;;4.90;73.50;;;;;;4779159;29;21667;-75
2021/04/07 07:08:05;;;;;;;5.10;2.17;;;4.90;72.90;;;;;;4795555;29;20051;-75
2021/04/07 07:10:46;;;;;;;6.53;2.45;;;4.90;71.60;;;;;;4780337;29;20051;-75
2021/04/07 07:13:17;;;;;;;13.32;4.63;;;4.90;72.40;;;;;;4803655;29;20051;-75
2021/04/07 07:15:45;;;;;;;9.68;3.60;;;4.90;71.10;;;;;;4798673;29;20046;-75
2021/04/07 07:18:22;;;;;;;6.18;2.42;;;4.90;70.80;;;;;;4776684;29;20059;-75
2021/04/07 07:20:49;;;;;;;8.05;2.80;;;5.00;70.40;;;;;;4792771;29;20051;-75
2021/04/07 07:23:30;;;;;;;8.75;3.55;;;5.10;70.50;;;;;;4792919;29;20059;-75
2021/04/07 07:26:03;;;;;;;42.08;16.65;;;5.20;71.00;;;;;;4803429;29;20078;-76
2021/04/07 07:28:51;;;;;;;10.90;4.95;;;5.30;69.20;;;;;;4783735;29;20049;-75
2021/04/07 07:31:26;;;;;;;10.65;5.10;;;5.50;69.90;;;;;;4793936;29;20047;-75
2021/04/07 07:33:54;;;;;;;9.95;3.58;;;5.60;68.20;;;;;;4803091;29;20054;-75
2021/04/07 07:36:22;;;;;;;6.50;2.72;;;5.70;67.60;;;;;;4770807;29;20084;-75
2021/04/07 07:38:51;;;;;;;21.38;8.55;;;5.80;68.40;;;;;;4800719;29;20077;-75
2021/04/07 07:41:41;;;;;;;17.23;7.30;;;5.90;66.40;;;;;;4776909;29;20047;-75
2021/04/07 07:44:18;;;;;;;13.40;4.95;;;6.00;65.90;;;;;;4786845;29;20396;-75
2021/04/07 07:46:46;;;;;;;8.23;3.05;;;6.10;63.70;;;;;;4789264;29;20047;-75
2021/04/07 07:49:15;;;;;;;4.38;1.70;;;6.10;62.40;;;;;;4791114;29;20054;-75
2021/04/07 07:51:46;;;;;;;5.95;2.63;;;6.20;63.70;;;;;;4788560;29;20047;-75
2021/04/07 07:54:15;;;;;;;3.15;1.42;;;6.40;61.60;;;;;;4804306;29;20047;-76
2021/04/07 07:56:41;;;;;;;4.68;2.28;;;6.50;61.90;;;;;;4779071;29;20050;-75
2021/04/07 07:59:08;;;;;;;5.95;2.28;;;6.70;59.90;;;;;;4786325;29;20061;-75
2021/04/07 08:01:50;;;;;;;2.97;1.50;;;6.80;61.30;;;;;;4784716;29;20078;-75
2021/04/07 08:04:18;;;;;;;5.68;2.22;;;6.90;58.00;;;;;;4787014;29;20050;-75
2021/04/07 08:06:46;;;;;;;4.78;1.60;;;6.90;58.80;;;;;;4784956;29;640427;-75
2021/04/07 08:09:14;;;;;;;3.83;1.25;;;6.90;57.90;;;;;;4777995;29;20112;-76
2021/04/07 08:11:46;;;;;;;4.28;1.77;;;7.00;55.60;;;;;;4808479;29;20049;-75
2021/04/07 08:14:14;;;;;;;3.60;1.73;;;6.80;54.40;;;;;;4772952;29;20055;-72
2021/04/07 08:16:43;;;;;;;4.00;1.67;;;6.60;55.40;;;;;;4777600;29;20082;-72
2021/04/07 08:19:11;;;;;;;2.95;1.30;;;6.80;56.60;;;;;;4781643;29;20146;-72
2021/04/07 08:21:39;;;;;;;3.28;1.45;;;7.00;56.10;;;;;;4776049;29;20059;-72
2021/04/07 08:24:11;;;;;;;2.92;1.13;;;7.20;55.30;;;;;;4798208;29;20639;-72
2021/04/07 08:26:39;;;;;;;6.22;1.80;;;7.30;55.10;;;;;;4791630;29;20112;-73
2021/04/07 08:29:06;;;;;;;4.90;1.38;;;7.40;55.70;;;;;;4779244;29;20062;-72
2021/04/07 08:31:35;;;;;;;4.13;1.30;;;7.60;54.00;;;;;;4789068;29;20496;-72
2021/04/07 08:34:04;;;;;;;6.00;2.22;;;7.70;53.80;;;;;;4791235;29;20043;-72
2021/04/07 08:36:31;;;;;;;7.28;1.38;;;7.80;52.80;;;;;;4781552;29;20063;-72
2021/04/07 08:39:10;;;;;;;5.25;2.22;;;7.80;51.50;;;;;;4783280;29;20811;-72
2021/04/07 08:41:39;;;;;;;3.80;1.55;;;7.80;52.40;;;;;;4799700;29;20115;-72
2021/04/07 08:44:06;;;;;;;2.42;0.90;;;7.90;52.00;;;;;;4775531;29;20047;-72
2021/04/07 08:46:51;;;;;;;3.97;1.58;;;7.90;52.60;;;;;;4796946;29;20063;-72
2021/04/07 08:49:41;;;;;;;4.72;1.60;;;8.10;52.70;;;;;;4778658;29;20057;-72
2021/04/07 08:52:12;;;;;;;3.03;0.70;;;8.30;50.00;;;;;;4785106;29;20063;-72
2021/04/07 08:54:48;;;;;;;3.42;1.00;;;8.40;49.90;;;;;;4784364;29;20051;-72
2021/04/07 08:57:32;;;;;;;2.00;0.50;;;8.50;49.20;;;;;;4779232;29;20047;-72
2021/04/07 09:00:17;;;;;;;2.85;1.13;;;8.60;50.60;;;;;;4785852;29;20166;-72
2021/04/07 09:02:51;;;;;;;2.60;0.70;;;8.80;48.10;;;;;;4795227;29;20047;-71
2021/04/07 09:05:29;;;;;;;2.70;1.05;;;8.80;49.60;;;;;;4766190;29;20054;-72
2021/04/07 09:07:57;;;;;;;5.20;1.73;;;8.70;48.30;;;;;;4795106;29;20139;-71
2021/04/07 09:10:24;;;;;;;4.63;1.40;;;8.70;50.30;;;;;;4765724;29;20400;-71
2021/04/07 09:12:53;;;;;;;4.20;1.33;;;8.80;50.50;;;;;;4780655;29;20047;-71
2021/04/07 09:15:21;;;;;;;4.10;1.20;;;8.90;49.00;;;;;;4792571;29;20050;-72
2021/04/07 09:17:49;;;;;;;2.95;1.35;;;8.90;49.30;;;;;;4781441;29;20062;-72
2021/04/07 09:20:36;;;;;;;4.43;1.17;;;9.10;49.20;;;;;;4780031;29;20146;-72
2021/04/07 09:23:14;;;;;;;4.18;1.27;;;9.40;48.00;;;;;;4798562;29;20046;-72
2021/04/07 09:25:53;;;;;;;7.95;3.08;;;9.50;46.60;;;;;;4795645;29;20045;-72
2021/04/07 09:28:34;;;;;;;5.82;1.75;;;9.50;47.50;;;;;;4783983;29;20055;-72
2021/04/07 09:31:27;;;;;;;3.13;1.33;;;9.50;48.10;;;;;;4784275;29;20057;-72
2021/04/07 09:33:57;;;;;;;6.13;2.77;;;9.50;48.70;;;;;;4782211;29;20135;-72
2021/04/07 09:36:31;;;;;;;6.32;1.60;;;9.60;48.60;;;;;;4780254;29;20726;-72
2021/04/07 09:39:01;;;;;;;4.80;1.80;;;9.50;46.50;;;;;;4784109;29;20423;-71
2021/04/07 09:41:30;;;;;;;3.20;1.25;;;9.00;46.00;;;;;;4782054;29;20101;-72
2021/04/07 09:43:57;;;;;;;3.72;1.42;;;8.90;47.40;;;;;;4767241;29;20043;-71
2021/04/07 09:46:24;;;;;;;3.38;1.52;;;9.00;48.30;;;;;;4777587;29;20050;-72
2021/04/07 09:48:52;;;;;;;3.78;1.33;;;9.00;47.50;;;;;;4802731;29;20050;-71
2021/04/07 09:51:29;;;;;;;3.15;1.38;;;8.80;48.10;;;;;;4781446;29;20051;-71
2021/04/07 09:54:19;;;;;;;6.85;1.50;;;8.70;48.70;;;;;;4792918;29;20054;-71
2021/04/07 09:57:00;;;;;;;3.58;1.25;;;8.50;48.10;;;;;;4797470;29;20047;-71
2021/04/07 09:59:36;;;;;;;5.32;1.42;;;8.40;48.30;;;;;;4796325;29;20063;-71
2021/04/07 10:02:07;;;;;;;3.55;1.20;;;8.60;49.40;;;;;;4780070;29;20724;-72
2021/04/07 10:04:42;;;;;;;3.03;1.10;;;9.10;46.30;;;;;;4796092;29;20075;-72
2021/04/07 10:07:13;;;;;;;3.47;1.20;;;9.20;44.30;;;;;;4783420;29;20059;-71
2021/04/07 10:09:45;;;;;;;3.67;1.52;;;9.40;44.40;;;;;;4782796;29;20419;-72
2021/04/07 10:12:15;;;;;;;4.13;1.50;;;9.60;45.30;;;;;;4799001;29;20043;-72
2021/04/07 10:15:03;;;;;;;3.97;1.30;;;9.90;45.70;;;;;;4778904;29;20043;-72
2021/04/07 10:17:37;;;;;;;3.25;1.20;;;10.00;43.70;;;;;;4786989;29;20074;-72
2021/04/07 10:20:13;;;;;;;4.13;1.65;;;10.00;44.00;;;;;;4783352;29;20058;-72
2021/04/07 10:22:41;;;;;;;1.73;1.00;;;9.70;43.10;;;;;;4781212;29;20507;-72
2021/04/07 10:25:16;;;;;;;2.35;0.98;;;9.80;44.10;;;;;;4783235;29;20151;-72
2021/04/07 10:27:44;;;;;;;3.10;1.30;;;9.70;43.70;;;;;;4795533;29;20551;-72
2021/04/07 10:30:16;;;;;;;3.50;1.13;;;9.60;43.60;;;;;;4789360;29;20046;-72
2021/04/07 10:32:46;;;;;;;4.10;0.90;;;10.00;44.30;;;;;;4784930;29;20560;-72
2021/04/07 10:35:26;;;;;;;5.10;1.25;;;10.30;43.20;;;;;;4784512;29;20039;-72
2021/04/07 10:38:06;;;;;;;2.78;1.20;;;10.70;41.90;;;;;;4786084;29;20086;-72
2021/04/07 10:40:35;;;;;;;3.03;1.20;;;10.80;39.90;;;;;;4785662;29;20066;-72
2021/04/07 10:43:16;;;;;;;2.65;0.70;;;10.70;39.30;;;;;;4796946;29;20147;-72
2021/04/07 10:45:44;;;;;;;3.45;1.00;;;10.60;39.90;;;;;;4784216;29;20054;-72
2021/04/07 10:48:11;;;;;;;2.88;1.20;;;10.80;39.80;;;;;;4778887;29;20122;-72
2021/04/07 10:50:40;;;;;;;4.45;1.42;;;10.90;39.10;;;;;;4785113;29;20054;-72
2021/04/07 10:53:07;;;;;;;5.10;0.95;;;11.00;41.20;;;;;;4800428;29;20500;-72
2021/04/07 10:55:36;;;;;;;2.75;0.77;;;11.40;37.50;;;;;;4788688;29;20111;-72
2021/04/07 10:58:02;;;;;;;5.82;0.70;;;11.50;36.10;;;;;;4796206;29;20419;-72
2021/04/07 11:00:33;;;;;;;3.40;1.25;;;11.40;36.50;;;;;;4786906;29;20053;-72
2021/04/07 11:03:00;;;;;;;3.03;0.88;;;11.40;37.00;;;;;;4787423;29;20062;-72
2021/04/07 11:05:42;;;;;;;3.25;0.73;;;11.50;37.60;;;;;;4795343;29;20047;-72
2021/04/07 11:08:10;;;;;;;2.97;1.40;;;11.50;38.00;;;;;;4789132;29;20427;-72
2021/04/07 11:10:47;;;;;;;3.90;1.00;;;11.40;38.20;;;;;;4784839;29;20549;-72
2021/04/07 11:13:15;;;;;;;3.80;0.88;;;11.70;38.30;;;;;;4783099;29;20047;-73
2021/04/07 11:15:42;;;;;;;2.17;0.70;;;11.80;38.40;;;;;;4786028;29;20051;-72
2021/04/07 11:18:09;;;;;;;1.80;0.60;;;11.60;37.40;;;;;;4790221;29;20877;-72
2021/04/07 11:20:45;;;;;;;3.03;0.98;;;11.70;38.30;;;;;;4789455;29;20050;-72
2021/04/07 11:23:12;;;;;;;3.33;0.80;;;11.20;37.50;;;;;;4798759;29;20051;-73
2021/04/07 11:25:44;;;;;;;5.47;0.90;;;10.80;38.60;;;;;;4766409;29;20062;-73
2021/04/07 11:28:21;;;;;;;4.60;1.00;;;10.20;39.80;;;;;;4791433;29;20156;-72
2021/04/07 11:31:13;;;;;;;3.63;0.93;;;9.70;41.00;;;;;;4762458;29;20057;-73
2021/04/07 11:33:45;;;;;;;4.82;1.30;;;9.60;41.10;;;;;;4773203;29;20775;-73
2021/04/07 11:38:44;;;;;;;3.95;0.98;;;10.80;38.70;;;;;;4804556;29;20182;-73
2021/04/07 11:46:25;;;;;;;5.07;0.80;;;10.40;38.50;;;;;;4793776;29;20572;-72
2021/04/07 11:48:52;;;;;;;3.67;1.02;;;10.30;39.30;;;;;;4783226;29;20051;-72
2021/04/07 11:51:19;;;;;;;1.02;0.60;;;10.40;38.70;;;;;;4784286;29;20059;-72
2021/04/07 11:53:47;;;;;;;3.08;1.10;;;10.40;37.50;;;;;;4790236;29;20429;-72
2021/04/07 11:56:14;;;;;;;2.60;1.02;;;10.60;37.50;;;;;;4799557;29;20054;-72
2021/04/07 11:58:40;;;;;;;3.05;0.60;;;10.90;38.60;;;;;;4786280;29;20046;-72
2021/04/07 12:01:08;;;;;;;2.65;1.20;;;11.90;37.90;;;;;;4797461;29;20054;-73
2021/04/07 12:03:35;;;;;;;1.50;0.63;;;12.20;37.00;;;;;;4795255;29;20061;-72
2021/04/07 12:06:02;;;;;;;2.63;1.25;;;12.40;36.80;;;;;;4791504;29;20057;-72
2021/04/07 12:08:29;;;;;;;5.20;0.90;;;12.20;36.20;;;;;;4782917;29;20062;-73
2021/04/07 12:11:00;;;;;;;1.58;0.60;;;11.90;36.90;;;;;;4778820;29;20078;-72
2021/04/07 12:13:29;;;;;;;2.35;0.60;;;11.40;33.60;;;;;;4767335;29;20054;-74
2021/04/07 12:15:56;;;;;;;2.92;0.30;;;10.80;35.10;;;;;;4797694;29;20168;-72
2021/04/07 12:18:23;;;;;;;1.85;0.50;;;10.50;36.20;;;;;;4781740;29;20065;-71
2021/04/07 12:20:50;;;;;;;0.80;0.60;;;10.30;37.10;;;;;;4790924;29;20143;-72
2021/04/07 12:23:18;;;;;;;1.55;0.60;;;10.10;37.80;;;;;;4779276;29;20101;-74
2021/04/07 12:25:46;;;;;;;2.03;1.00;;;9.90;38.20;;;;;;4796024;29;20056;-74
2021/04/07 12:28:13;;;;;;;2.88;0.90;;;9.80;38.50;;;;;;4797328;29;20075;-74
2021/04/07 12:30:49;;;;;;;2.42;0.82;;;11.00;38.00;;;;;;4799999;29;20046;-73
2021/04/07 12:33:27;;;;;;;1.98;0.63;;;12.90;37.00;;;;;;4781994;29;20063;-73
2021/04/07 12:35:55;;;;;;;4.40;0.95;;;14.40;34.40;;;;;;4783929;29;20050;-74
2021/04/07 12:38:22;;;;;;;2.60;0.60;;;15.30;33.30;;;;;;4785048;29;20098;-74
2021/04/07 12:40:52;;;;;;;1.88;0.82;;;16.60;32.00;;;;;;4782073;29;20056;-74
2021/04/07 12:43:19;;;;;;;2.03;0.60;;;17.30;30.60;;;;;;4781371;29;20050;-74
2021/04/07 12:45:46;;;;;;;3.83;0.82;;;17.50;30.20;;;;;;4780272;29;20076;-75
2021/04/07 12:48:14;;;;;;;4.55;1.00;;;16.20;31.40;;;;;;4795735;29;20047;-74
2021/04/07 12:50:42;;;;;;;3.50;0.68;;;14.40;34.80;;;;;;4803351;29;20062;-74
2021/04/07 12:53:09;;;;;;;1.52;0.60;;;12.90;36.90;;;;;;4798193;29;20445;-74
2021/04/07 12:55:37;;;;;;;3.58;0.60;;;11.60;42.80;;;;;;4790152;29;20068;-74
2021/04/07 12:58:06;;;;;;;2.92;0.60;;;11.10;47.10;;;;;;4781266;29;20065;-74
2021/04/07 13:00:33;;;;;;;1.50;0.50;;;11.20;47.80;;;;;;4789210;29;20529;-74
2021/04/07 13:02:59;;;;;;;1.15;0.43;;;12.60;45.20;;;;;;4790331;29;20070;-74
2021/04/07 13:05:26;;;;;;;2.22;0.90;;;13.30;37.60;;;;;;4787696;29;20545;-74
2021/04/07 13:07:53;;;;;;;1.42;0.50;;;14.30;36.30;;;;;;4784377;29;20112;-74
2021/04/07 13:10:23;;;;;;;1.50;0.52;;;15.20;33.80;;;;;;4796078;29;20063;-74
2021/04/07 13:12:50;;;;;;;2.47;0.60;;;14.70;34.50;;;;;;4795446;29;20431;-74
2021/04/07 13:15:18;;;;;;;2.60;0.70;;;13.50;35.90;;;;;;4777286;29;21544;-74
2021/04/07 13:17:45;;;;;;;2.15;0.68;;;12.60;38.40;;;;;;4779221;29;20142;-74